Terminal Aerodrome Forecast
Issued by NWS

Current Version | Previous Version | Text Only | Print | Product List | Glossary On
Versions: 1 2 3 4 5 6 7 8 9 10 11 12 13 14 15 16 17 18
000
FTUS45 KABQ 280500
TAFAEG
TAF
KAEG 280523Z 2806/2906 14010KT P6SM BKN050
      TEMPO 2806/2807 -RA OVC040
     FM281200 07006KT P6SM SCT050 BKN100
     FM281800 12008KT P6SM SCT060 BKN120=

USA.gov is the U.S. government's official web portal to all federal, state and local government web resources and services.